createdAt,value
2022-10-17T00:00:54.261Z,5.81
2022-10-17T00:03:22.229Z,5.80
2022-10-17T00:05:50.264Z,5.79
2022-10-17T00:08:19.093Z,5.77
2022-10-17T00:10:56.548Z,5.77
2022-10-17T00:13:24.602Z,5.71
2022-10-17T00:15:52.625Z,5.74
2022-10-17T00:18:20.593Z,5.73
2022-10-17T00:20:48.570Z,5.71
2022-10-17T00:23:16.531Z,5.74
2022-10-17T00:25:44.501Z,5.73
2022-10-17T00:28:13.886Z,5.68
2022-10-17T00:30:41.851Z,5.67
2022-10-17T00:33:09.832Z,5.66
2022-10-17T00:35:37.818Z,5.62
2022-10-17T00:38:05.769Z,5.38
2022-10-17T00:40:33.715Z,5.51
2022-10-17T00:43:01.656Z,5.49
2022-10-17T00:45:31.516Z,5.48
2022-10-17T00:48:01.134Z,5.31
2022-10-17T00:50:29.155Z,5.40
2022-10-17T00:52:57.185Z,5.39
2022-10-17T00:55:26.490Z,5.29
2022-10-17T00:57:54.451Z,5.30
2022-10-17T01:00:22.527Z,5.27
2022-10-17T01:02:51.861Z,5.29
2022-10-17T01:05:19.880Z,5.28
2022-10-17T01:07:48.174Z,5.28
2022-10-17T01:10:16.192Z,5.27
2022-10-17T01:12:50.567Z,5.18
2022-10-17T01:15:23.352Z,5.24
2022-10-17T01:18:00.469Z,5.25
2022-10-17T01:20:57.104Z,5.26
2022-10-17T01:23:31.848Z,5.24
2022-10-17T01:26:05.721Z,5.25
2022-10-17T01:28:45.949Z,5.23
2022-10-17T01:31:15.388Z,5.13
2022-10-17T01:33:47.710Z,5.14
2022-10-17T01:36:19.893Z,5.06
2022-10-17T01:38:48.891Z,4.98
2022-10-17T01:41:20.599Z,5.03
2022-10-17T01:43:50.777Z,5.02
2022-10-17T01:46:23.302Z,5.00
2022-10-17T01:48:51.288Z,4.98
2022-10-17T01:51:20.604Z,5.01
2022-10-17T01:53:50.503Z,5.00
2022-10-17T01:56:18.516Z,4.92
2022-10-17T01:58:48.838Z,5.08
2022-10-17T02:01:16.812Z,5.05
2022-10-17T02:03:46.176Z,5.04
2022-10-17T02:06:14.151Z,5.03
2022-10-17T02:08:42.935Z,4.98
2022-10-17T02:11:13.001Z,4.94
2022-10-17T02:13:47.012Z,4.73
2022-10-17T02:16:20.966Z,4.68
2022-10-17T02:19:03.208Z,4.68
2022-10-17T02:21:34.547Z,4.65
2022-10-17T02:24:06.172Z,4.54
2022-10-17T02:26:34.992Z,4.56
2022-10-17T02:29:07.292Z,4.65
2022-10-17T02:31:37.387Z,4.44
2022-10-17T02:34:08.124Z,4.54
2022-10-17T02:36:45.843Z,4.55
2022-10-17T02:39:13.805Z,4.48
2022-10-17T02:41:41.884Z,4.42
2022-10-17T02:44:09.829Z,4.45
2022-10-17T02:46:37.828Z,4.39
2022-10-17T02:49:09.225Z,4.08
2022-10-17T02:51:39.952Z,4.17
2022-10-17T02:54:10.809Z,4.22
2022-10-17T02:56:41.072Z,4.31
2022-10-17T02:59:09.044Z,4.29
2022-10-17T03:01:37.097Z,4.31
2022-10-17T03:04:10.330Z,4.30
2022-10-17T03:06:38.327Z,4.26
2022-10-17T03:09:06.309Z,4.25
2022-10-17T03:11:34.300Z,4.21
2022-10-17T03:14:02.284Z,4.18
2022-10-17T03:16:30.269Z,4.18
2022-10-17T03:18:58.227Z,4.17
2022-10-17T03:21:27.587Z,4.18
2022-10-17T03:23:55.503Z,4.19
2022-10-17T03:26:23.491Z,4.16
2022-10-17T03:28:53.672Z,4.15
2022-10-17T03:31:22.577Z,4.18
2022-10-17T03:33:50.504Z,4.18
2022-10-17T03:36:19.088Z,4.12
2022-10-17T03:38:48.478Z,4.08
2022-10-17T03:41:16.471Z,4.08
2022-10-17T03:43:44.427Z,4.08
2022-10-17T03:46:12.463Z,4.07
2022-10-17T03:48:40.518Z,4.06
2022-10-17T03:51:09.310Z,3.80
2022-10-17T03:53:37.276Z,3.94
2022-10-17T03:56:13.410Z,3.86
2022-10-17T03:58:41.420Z,3.84
2022-10-17T04:01:10.170Z,3.83
2022-10-17T04:03:38.262Z,3.83
2022-10-17T04:06:06.719Z,3.83
2022-10-17T04:08:34.738Z,3.84
2022-10-17T04:11:02.794Z,3.90
2022-10-17T04:13:32.196Z,3.90
2022-10-17T04:16:00.736Z,3.90
2022-10-17T04:18:28.864Z,3.65
2022-10-17T04:20:56.800Z,3.68
2022-10-17T04:23:26.551Z,3.66
2022-10-17T04:25:57.156Z,3.63
2022-10-17T04:28:25.236Z,3.56
2022-10-17T04:30:58.945Z,3.63
2022-10-17T04:33:26.950Z,3.64
2022-10-17T04:35:58.977Z,3.64
2022-10-17T04:38:28.593Z,3.62
2022-10-17T04:40:58.598Z,3.63
2022-10-17T04:43:26.541Z,3.64
2022-10-17T04:45:54.503Z,3.67
2022-10-17T04:48:23.946Z,3.70
2022-10-17T04:50:55.396Z,3.65
2022-10-17T04:53:23.333Z,3.55
2022-10-17T04:55:51.394Z,3.65
2022-10-17T04:58:19.410Z,3.76
2022-10-17T05:00:47.394Z,3.86
2022-10-17T05:03:15.339Z,3.99
2022-10-17T05:05:44.720Z,4.15
2022-10-17T05:08:12.910Z,4.33
2022-10-17T05:10:41.509Z,4.50
2022-10-17T05:13:09.581Z,4.76
2022-10-17T05:15:37.623Z,5.03
2022-10-17T05:18:05.925Z,5.24
2022-10-17T05:20:34.036Z,5.52
2022-10-17T05:23:03.506Z,5.81
2022-10-17T05:25:31.475Z,6.20
2022-10-17T05:27:59.444Z,6.38
2022-10-17T05:30:27.437Z,6.44
2022-10-17T05:32:55.664Z,6.45
2022-10-17T05:35:24.685Z,6.60
2022-10-17T05:37:52.631Z,6.62
2022-10-17T05:40:22.015Z,6.77
2022-10-17T05:42:50.130Z,6.92
2022-10-17T05:45:18.096Z,7.15
2022-10-17T05:47:46.052Z,7.27
2022-10-17T05:50:14.035Z,7.41
2022-10-17T05:52:43.945Z,7.40
2022-10-17T05:55:14.484Z,7.60
2022-10-17T05:57:43.829Z,7.70
2022-10-17T06:00:12.978Z,7.83
2022-10-17T06:02:40.951Z,7.88
2022-10-17T06:05:09.699Z,7.94
2022-10-17T06:07:37.715Z,8.11
2022-10-17T06:10:06.336Z,8.29
2022-10-17T06:12:34.316Z,8.42
2022-10-17T06:15:03.671Z,8.61
2022-10-17T06:17:31.639Z,8.52
2022-10-17T06:19:59.703Z,8.61
2022-10-17T06:22:27.967Z,8.66
2022-10-17T06:24:56.213Z,8.90
2022-10-17T06:27:24.137Z,9.04
2022-10-17T06:29:52.375Z,9.04
2022-10-17T06:32:22.118Z,9.07
2022-10-17T06:34:50.171Z,9.09
2022-10-17T06:37:18.245Z,9.04
2022-10-17T06:39:46.213Z,9.05
2022-10-17T06:42:14.201Z,9.14
2022-10-17T06:44:42.271Z,9.02
2022-10-17T06:47:10.967Z,9.18
2022-10-17T06:49:40.336Z,9.37
2022-10-17T06:52:08.332Z,9.48
2022-10-17T06:54:36.365Z,9.43
2022-10-17T06:57:04.361Z,9.50
2022-10-17T06:59:32.375Z,9.56
2022-10-17T07:02:00.585Z,9.59
2022-10-17T07:04:28.570Z,9.82
2022-10-17T07:09:27.843Z,10.20
2022-10-17T07:11:55.947Z,10.37
2022-10-17T07:14:24.055Z,10.53
2022-10-17T07:16:52.075Z,10.70
2022-10-17T07:19:20.195Z,10.88
2022-10-17T07:21:49.195Z,10.95
2022-10-17T07:24:18.803Z,11.12
2022-10-17T07:26:46.763Z,11.32
2022-10-17T07:29:14.773Z,11.47
2022-10-17T07:31:42.772Z,11.59
2022-10-17T07:34:10.713Z,11.75
2022-10-17T07:36:38.738Z,11.90
2022-10-17T07:39:06.788Z,11.85
2022-10-17T07:41:36.136Z,11.95
2022-10-17T07:44:04.099Z,12.04
2022-10-17T07:46:32.038Z,12.15
2022-10-17T07:48:59.963Z,12.20
2022-10-17T07:51:28.106Z,12.23
2022-10-17T07:53:56.051Z,12.37
2022-10-17T07:56:24.862Z,12.53
2022-10-17T07:58:54.284Z,12.74
2022-10-17T08:01:22.336Z,12.89
2022-10-17T08:03:50.333Z,13.05
2022-10-17T08:06:18.339Z,13.20
2022-10-17T08:08:46.348Z,13.40
2022-10-17T08:11:15.030Z,13.58
2022-10-17T08:13:43.005Z,13.58
2022-10-17T08:16:13.307Z,13.65
2022-10-17T08:18:41.995Z,13.86
2022-10-17T08:21:13.060Z,13.96
2022-10-17T08:23:41.212Z,14.08
2022-10-17T08:26:10.842Z,14.13
2022-10-17T08:28:39.392Z,14.36
2022-10-17T08:31:08.106Z,14.39
2022-10-17T08:33:37.613Z,14.62
2022-10-17T08:36:06.075Z,14.70
2022-10-17T08:38:35.651Z,14.75
2022-10-17T08:41:05.144Z,14.83
2022-10-17T08:43:43.825Z,14.93
2022-10-17T08:46:11.853Z,15.02
2022-10-17T08:48:45.603Z,15.21
2022-10-17T08:51:16.744Z,15.42
2022-10-17T08:53:46.431Z,15.71
2022-10-17T08:56:19.834Z,16.00
2022-10-17T08:58:52.593Z,16.48
2022-10-17T09:01:31.050Z,17.07
2022-10-17T09:04:11.619Z,17.41
2022-10-17T09:06:40.799Z,17.61
2022-10-17T09:09:18.204Z,17.72
2022-10-17T09:11:55.078Z,17.96
2022-10-17T09:14:31.905Z,17.97
2022-10-17T09:17:09.662Z,17.72
2022-10-17T09:19:40.290Z,17.42
2022-10-17T09:22:10.918Z,17.22
2022-10-17T09:24:41.899Z,17.16
2022-10-17T09:27:20.771Z,17.36
2022-10-17T09:29:50.060Z,17.47
2022-10-17T09:32:19.600Z,17.43
2022-10-17T09:34:48.934Z,17.49
2022-10-17T09:37:17.416Z,17.69
2022-10-17T09:39:45.549Z,17.59
2022-10-17T09:42:15.001Z,17.52
2022-10-17T09:44:47.638Z,17.44
2022-10-17T09:47:27.591Z,17.42
2022-10-17T09:49:56.992Z,17.60
2022-10-17T09:52:28.745Z,17.73
2022-10-17T09:54:58.664Z,18.03
2022-10-17T09:57:26.737Z,18.14
2022-10-17T10:00:00.341Z,18.45
2022-10-17T10:02:29.400Z,18.85
2022-10-17T10:05:04.707Z,19.18
2022-10-17T10:07:34.285Z,19.52
2022-10-17T10:10:03.065Z,19.72
2022-10-17T10:12:32.799Z,19.98
2022-10-17T10:15:00.944Z,19.62
2022-10-17T10:17:34.764Z,19.46
2022-10-17T10:20:04.885Z,19.66
2022-10-17T10:22:33.029Z,19.79
2022-10-17T10:25:14.137Z,20.06
2022-10-17T10:27:42.266Z,19.91
2022-10-17T10:30:18.678Z,19.77
2022-10-17T10:32:47.765Z,19.55
2022-10-17T10:35:20.962Z,19.44
2022-10-17T10:37:49.547Z,19.72
2022-10-17T10:40:19.030Z,19.64
2022-10-17T10:42:48.455Z,19.58
2022-10-17T10:45:35.912Z,19.43
2022-10-17T10:48:23.005Z,19.73
2022-10-17T10:50:54.297Z,19.92
2022-10-17T10:53:35.571Z,20.36
2022-10-17T10:56:06.762Z,20.69
2022-10-17T10:58:42.066Z,21.27
2022-10-17T11:01:15.942Z,21.25
2022-10-17T11:03:50.197Z,20.87
2022-10-17T11:06:21.620Z,20.87
2022-10-17T11:08:50.382Z,20.94
2022-10-17T11:11:23.947Z,20.89
2022-10-17T11:13:55.204Z,20.96
2022-10-17T11:16:27.576Z,20.89
2022-10-17T11:18:59.335Z,21.61
2022-10-17T11:21:34.074Z,22.14
2022-10-17T11:24:09.237Z,22.57
2022-10-17T11:26:41.668Z,23.57
2022-10-17T11:29:11.999Z,25.53
2022-10-17T11:31:41.344Z,26.73
2022-10-17T11:34:11.682Z,27.89
2022-10-17T11:36:42.344Z,28.48
2022-10-17T11:39:15.353Z,30.08
2022-10-17T11:41:44.992Z,31.45
2022-10-17T11:44:16.837Z,31.26
2022-10-17T11:46:44.853Z,31.11
2022-10-17T11:49:19.874Z,29.15
2022-10-17T11:52:05.937Z,28.08
2022-10-17T11:54:35.551Z,27.96
2022-10-17T11:57:26.207Z,26.51
2022-10-17T11:59:58.647Z,25.12
2022-10-17T12:02:32.678Z,23.90
2022-10-17T12:05:05.179Z,23.03
2022-10-17T12:07:39.378Z,22.38
2022-10-17T12:10:22.872Z,21.92
2022-10-17T12:12:50.798Z,21.41
2022-10-17T12:15:29.556Z,21.02
2022-10-17T12:17:58.349Z,20.45
2022-10-17T12:20:28.676Z,20.06
2022-10-17T12:22:59.753Z,19.91
2022-10-17T12:25:30.129Z,19.76
2022-10-17T12:28:15.928Z,19.58
2022-10-17T12:30:51.712Z,19.34
2022-10-17T12:33:22.433Z,19.25
2022-10-17T12:35:51.167Z,19.10
2022-10-17T12:38:28.079Z,19.13
2022-10-17T12:41:03.167Z,19.01
2022-10-17T12:43:57.902Z,18.70
2022-10-17T12:46:52.667Z,18.84
2022-10-17T12:49:39.114Z,18.81
2022-10-17T12:52:29.605Z,18.72
2022-10-17T12:55:11.427Z,18.68
2022-10-17T12:57:44.060Z,18.67
2022-10-17T13:00:21.191Z,18.57
2022-10-17T13:02:49.160Z,18.61
2022-10-17T13:05:20.532Z,18.56
2022-10-17T13:07:48.457Z,18.57
2022-10-17T13:10:22.749Z,18.39
2022-10-17T13:12:50.998Z,18.45
2022-10-17T13:15:20.150Z,18.42
2022-10-17T13:17:56.857Z,18.40
2022-10-17T13:20:30.571Z,18.34
2022-10-17T13:22:59.729Z,18.31
2022-10-17T13:25:29.205Z,18.27
2022-10-17T13:28:13.896Z,18.27
2022-10-17T13:30:47.363Z,18.17
2022-10-17T13:33:30.213Z,18.27
2022-10-17T13:36:00.447Z,18.25
2022-10-17T13:38:30.248Z,18.16
2022-10-17T13:41:10.779Z,18.12
2022-10-17T13:43:47.593Z,18.16
2022-10-17T13:46:36.327Z,18.04
2022-10-17T13:49:11.762Z,17.91
2022-10-17T13:51:44.163Z,17.93
2022-10-17T13:54:19.587Z,17.89
2022-10-17T13:56:48.947Z,17.76
2022-10-17T13:59:23.134Z,17.78
2022-10-17T14:01:52.231Z,17.80
2022-10-17T14:04:20.717Z,17.79
2022-10-17T14:06:51.112Z,17.76
2022-10-17T14:09:22.569Z,17.72
2022-10-17T14:12:01.176Z,17.59
2022-10-17T14:14:32.154Z,17.53
2022-10-17T14:17:14.495Z,17.48
2022-10-17T14:19:42.506Z,17.40
2022-10-17T14:22:17.621Z,17.37
2022-10-17T14:24:45.814Z,17.25
2022-10-17T14:27:29.978Z,17.29
2022-10-17T14:30:00.798Z,17.22
2022-10-17T14:32:28.907Z,17.18
2022-10-17T14:35:10.561Z,17.11
2022-10-17T14:37:46.595Z,17.05
2022-10-17T14:40:16.539Z,17.05
2022-10-17T14:42:45.972Z,17.01
2022-10-17T14:45:14.847Z,16.96
2022-10-17T14:47:44.127Z,16.90
2022-10-17T14:50:22.691Z,16.87
2022-10-17T14:53:00.606Z,16.78
2022-10-17T14:55:29.567Z,16.70
2022-10-17T14:57:58.926Z,16.63
2022-10-17T15:00:29.548Z,16.55
2022-10-17T15:02:57.589Z,16.43
2022-10-17T15:05:25.699Z,16.32
2022-10-17T15:07:53.717Z,16.30
2022-10-17T15:10:28.257Z,16.14
2022-10-17T15:12:59.174Z,16.08
2022-10-17T15:15:39.339Z,15.89
2022-10-17T15:18:07.393Z,15.84
2022-10-17T15:20:35.374Z,15.69
2022-10-17T15:23:03.430Z,15.53
2022-10-17T15:25:32.415Z,15.39
2022-10-17T15:28:00.385Z,15.21
2022-10-17T15:30:29.213Z,15.03
2022-10-17T15:32:58.601Z,14.86
2022-10-17T15:35:26.672Z,14.51
2022-10-17T15:37:54.644Z,14.55
2022-10-17T15:40:23.501Z,14.41
2022-10-17T15:42:51.457Z,14.25
2022-10-17T15:45:21.914Z,14.08
2022-10-17T15:47:51.778Z,13.87
2022-10-17T15:50:21.809Z,13.70
2022-10-17T15:52:51.033Z,13.60
2022-10-17T15:55:19.330Z,13.28
2022-10-17T15:57:47.665Z,13.29
2022-10-17T16:00:17.236Z,13.15
2022-10-17T16:02:45.248Z,13.03
2022-10-17T16:05:16.185Z,12.90
2022-10-17T16:07:46.321Z,12.77
2022-10-17T16:10:14.428Z,12.63
2022-10-17T16:12:42.412Z,12.52
2022-10-17T16:15:13.752Z,12.40
2022-10-17T16:17:41.923Z,12.30
2022-10-17T16:20:10.469Z,12.23
2022-10-17T16:22:38.630Z,12.15
2022-10-17T16:25:10.097Z,12.05
2022-10-17T16:27:38.104Z,11.96
2022-10-17T16:30:07.192Z,11.88
2022-10-17T16:32:35.174Z,11.81
2022-10-17T16:35:03.131Z,11.70
2022-10-17T16:37:31.106Z,11.63
2022-10-17T16:39:59.056Z,11.57
2022-10-17T16:42:28.686Z,11.47
2022-10-17T16:44:56.875Z,11.39
2022-10-17T16:47:24.858Z,11.34
2022-10-17T16:49:52.820Z,11.29
2022-10-17T16:52:20.836Z,11.22
2022-10-17T16:54:48.900Z,11.13
2022-10-17T16:57:16.908Z,11.08
2022-10-17T16:59:46.291Z,11.02
2022-10-17T17:02:16.362Z,10.90
2022-10-17T17:04:47.045Z,10.90
2022-10-17T17:07:15.048Z,10.85
2022-10-17T17:09:43.009Z,10.82
2022-10-17T17:12:10.989Z,10.78
2022-10-17T17:14:39.898Z,10.75
2022-10-17T17:17:15.420Z,10.70
2022-10-17T17:19:52.805Z,10.62
2022-10-17T17:22:20.799Z,10.63
2022-10-17T17:27:17.691Z,10.52
2022-10-17T17:29:45.654Z,10.48
2022-10-17T17:32:14.988Z,10.42
2022-10-17T17:34:42.938Z,10.35
2022-10-17T17:37:10.929Z,10.35
2022-10-17T17:39:39.048Z,10.31
2022-10-17T17:42:07.036Z,10.31
2022-10-17T17:44:35.169Z,10.27
2022-10-17T17:47:03.127Z,10.23
2022-10-17T17:49:32.778Z,10.20
2022-10-17T17:54:37.247Z,10.14
2022-10-17T17:57:08.166Z,10.08
2022-10-17T17:59:36.394Z,10.03
2022-10-17T18:02:06.340Z,9.97
2022-10-17T18:04:36.134Z,9.95
2022-10-17T18:07:04.092Z,9.91
2022-10-17T18:09:32.060Z,9.89
2022-10-17T18:12:00.038Z,9.84
2022-10-17T18:14:28.111Z,9.79
2022-10-17T18:16:56.048Z,9.76
2022-10-17T18:19:24.655Z,9.73
2022-10-17T18:21:54.055Z,9.63
2022-10-17T18:24:22.098Z,9.61
2022-10-17T18:26:51.074Z,9.58
2022-10-17T18:29:19.106Z,9.53
2022-10-17T18:31:47.121Z,9.47
2022-10-17T18:34:15.120Z,9.44
2022-10-17T18:36:43.048Z,9.42
2022-10-17T18:39:12.420Z,9.40
2022-10-17T18:41:40.373Z,9.38
2022-10-17T18:44:08.356Z,9.33
2022-10-17T18:46:40.884Z,9.29
2022-10-17T18:49:10.188Z,9.27
2022-10-17T18:51:38.187Z,9.21
2022-10-17T18:54:06.146Z,9.17
2022-10-17T18:56:35.797Z,9.14
2022-10-17T18:59:03.753Z,8.86
2022-10-17T19:01:31.731Z,8.98
2022-10-17T19:04:00.097Z,8.93
2022-10-17T19:06:31.778Z,8.91
2022-10-17T19:09:00.192Z,8.90
2022-10-17T19:11:29.428Z,8.84
2022-10-17T19:13:59.660Z,8.81
2022-10-17T19:16:29.164Z,8.81
2022-10-17T19:18:59.387Z,8.77
2022-10-17T19:21:27.542Z,8.74
2022-10-17T19:23:57.053Z,8.72
2022-10-17T19:26:25.192Z,8.66
2022-10-17T19:28:53.959Z,8.57
2022-10-17T19:31:26.841Z,8.54
2022-10-17T19:33:55.420Z,8.48
2022-10-17T19:36:27.518Z,8.49
2022-10-17T19:38:58.692Z,8.46
2022-10-17T19:41:26.683Z,8.42
2022-10-17T19:43:54.957Z,8.45
2022-10-17T19:46:25.248Z,8.41
2022-10-17T19:48:53.172Z,8.32
2022-10-17T19:51:22.177Z,8.33
2022-10-17T19:53:50.171Z,8.29
2022-10-17T19:56:18.731Z,8.28
2022-10-17T19:58:46.714Z,8.23
2022-10-17T20:01:15.477Z,8.22
2022-10-17T20:03:44.910Z,8.18
2022-10-17T20:06:12.954Z,8.10
2022-10-17T20:08:41.211Z,8.07
2022-10-17T20:11:11.816Z,8.01
2022-10-17T20:13:39.867Z,8.07
2022-10-17T20:16:08.843Z,8.03
2022-10-17T20:18:36.914Z,8.02
2022-10-17T20:21:08.224Z,7.98
2022-10-17T20:23:36.324Z,7.91
2022-10-17T20:26:25.537Z,7.95
2022-10-17T20:28:54.130Z,7.90
2022-10-17T20:31:22.218Z,7.89
2022-10-17T20:33:50.145Z,7.86
2022-10-17T20:36:23.304Z,7.80
2022-10-17T20:38:54.182Z,7.78
2022-10-17T20:41:22.151Z,7.77
2022-10-17T20:43:51.258Z,7.77
2022-10-17T20:46:35.072Z,7.75
2022-10-17T20:49:04.426Z,7.71
2022-10-17T20:51:33.834Z,7.64
2022-10-17T20:54:02.794Z,7.63
2022-10-17T20:56:31.749Z,7.61
2022-10-17T20:59:00.645Z,7.59
2022-10-17T21:01:28.808Z,7.46
2022-10-17T21:03:59.704Z,7.53
2022-10-17T21:06:30.556Z,7.51
2022-10-17T21:08:59.944Z,7.48
2022-10-17T21:11:28.936Z,7.45
2022-10-17T21:13:57.517Z,7.44
2022-10-17T21:16:25.613Z,7.41
2022-10-17T21:18:53.570Z,7.40
2022-10-17T21:21:22.414Z,7.35
2022-10-17T21:23:51.035Z,7.33
2022-10-17T21:26:20.379Z,7.29
2022-10-17T21:28:49.034Z,7.25
2022-10-17T21:31:18.243Z,7.24
2022-10-17T21:33:47.317Z,7.18
2022-10-17T21:36:16.845Z,7.13
2022-10-17T21:38:44.917Z,7.13
2022-10-17T21:41:13.963Z,7.11
2022-10-17T21:43:43.461Z,7.09
2022-10-17T21:46:13.075Z,7.07
2022-10-17T21:48:41.034Z,7.03
2022-10-17T21:51:10.395Z,7.03
2022-10-17T21:53:38.655Z,7.01
2022-10-17T21:56:08.385Z,6.97
2022-10-17T21:58:36.379Z,6.71
2022-10-17T22:01:06.768Z,6.89
2022-10-17T22:03:35.282Z,6.93
2022-10-17T22:06:12.978Z,6.92
2022-10-17T22:08:51.276Z,6.89
2022-10-17T22:11:22.415Z,6.86
2022-10-17T22:13:53.943Z,6.85
2022-10-17T22:16:23.370Z,6.83
2022-10-17T22:18:51.329Z,6.80
2022-10-17T22:21:20.139Z,6.80
2022-10-17T22:23:49.419Z,6.76
2022-10-17T22:26:17.360Z,6.67
2022-10-17T22:28:45.372Z,6.65
2022-10-17T22:31:13.361Z,6.63
2022-10-17T22:33:42.805Z,6.60
2022-10-17T22:36:11.011Z,6.55
2022-10-17T22:38:39.019Z,6.57
2022-10-17T22:41:07.317Z,6.58
2022-10-17T22:43:35.291Z,6.57
2022-10-17T22:46:04.908Z,6.57
2022-10-17T22:48:32.918Z,6.56
2022-10-17T22:51:02.348Z,6.55
2022-10-17T22:53:30.342Z,6.55
2022-10-17T22:55:59.151Z,6.53
2022-10-17T22:58:27.288Z,6.48
2022-10-17T23:00:55.291Z,6.50
2022-10-17T23:03:23.502Z,6.49
2022-10-17T23:05:51.509Z,6.48
2022-10-17T23:08:20.859Z,6.45
2022-10-17T23:10:48.909Z,6.43
2022-10-17T23:13:17.017Z,6.42
2022-10-17T23:15:44.958Z,6.37
2022-10-17T23:18:12.960Z,6.36
2022-10-17T23:20:40.946Z,6.34
2022-10-17T23:23:08.907Z,6.31
2022-10-17T23:25:38.268Z,6.28
2022-10-17T23:28:07.461Z,6.26
2022-10-17T23:30:35.413Z,6.25
2022-10-17T23:33:03.402Z,6.22
2022-10-17T23:35:31.386Z,6.22
2022-10-17T23:37:59.377Z,6.13
2022-10-17T23:40:27.347Z,6.05
2022-10-17T23:42:56.647Z,6.11
2022-10-17T23:45:24.671Z,6.08
2022-10-17T23:47:52.685Z,6.06
2022-10-17T23:50:20.652Z,6.05
2022-10-17T23:52:48.608Z,6.00
2022-10-17T23:55:16.704Z,5.96
2022-10-17T23:57:44.636Z,5.95
